Time;durP1;ratioP1;P1;durP2;ratioP2;P2;SDS_P1;SDS_P2;PMS_P1;PMS_P2;Temp;Humidity;BMP_temperature;BMP_pressure;BME280_temperature;BME280_humidity;BME280_pressure;Samples;Min_cycle;Max_cycle;Signal;HPM_P1;HPM_P2
2022/06/02 00:00:09;;;;;;;4.20;3.90;;;15.20;1.00;;;;;;5048879;28;21017;-60
2022/06/02 00:02:56;;;;;;;4.83;4.00;;;15.20;1.00;;;;;;5047306;28;20532;-60
2022/06/02 00:05:59;;;;;;;4.40;4.10;;;15.10;1.00;;;;;;5050959;28;20449;-61
2022/06/02 00:08:46;;;;;;;4.60;4.30;;;15.10;1.00;;;;;;5048523;28;22121;-61
2022/06/02 00:11:51;;;;;;;4.13;3.83;;;15.00;1.00;;;;;;5050238;28;20424;-59
2022/06/02 00:14:50;;;;;;;4.87;4.40;;;15.10;1.00;;;;;;5048834;28;20500;-60
2022/06/02 00:17:35;;;;;;;5.60;5.20;;;15.10;1.00;;;;;;5048799;28;21031;-60
2022/06/02 00:20:29;;;;;;;4.47;4.07;;;15.00;1.00;;;;;;5049588;28;20438;-59
2022/06/02 00:23:11;;;;;;;5.50;5.10;;;15.00;1.00;;;;;;5056651;28;20946;-60
2022/06/02 00:26:24;;;;;;;4.90;4.43;;;15.10;1.00;;;;;;5050907;28;20451;-58
2022/06/02 00:29:16;;;;;;;5.20;4.83;;;14.90;1.00;;;;;;5050064;28;20469;-60
2022/06/02 00:31:47;;;;;;;4.70;4.40;;;14.90;1.00;;;;;;5042488;28;20450;-60
2022/06/02 00:34:45;;;;;;;5.80;4.67;;;14.90;1.00;;;;;;5047402;28;20467;-60
2022/06/02 00:37:28;;;;;;;5.40;5.00;;;14.80;1.00;;;;;;5044843;28;20479;-60
2022/06/02 00:39:56;;;;;;;4.70;4.40;;;14.90;1.00;;;;;;5048092;28;20446;-60
2022/06/02 00:42:24;;;;;;;5.10;4.70;;;14.80;1.00;;;;;;5049695;28;20760;-60
2022/06/02 00:45:00;;;;;;;5.47;4.97;;;14.70;1.00;;;;;;5050963;28;20476;-60
2022/06/02 00:47:48;;;;;;;5.03;4.73;;;14.80;1.00;;;;;;5044233;28;20482;-60
2022/06/02 00:50:50;;;;;;;5.07;4.77;;;14.90;1.00;;;;;;5050017;28;20460;-61
2022/06/02 00:59:48;;;;;;;4.50;4.20;;;15.00;1.00;;;;;;5051482;28;20804;-60
2022/06/02 01:02:14;;;;;;;4.93;4.53;;;;;;;;;;5050802;28;20442;-60
2022/06/02 01:04:43;;;;;;;5.10;4.60;;;15.40;1.00;;;;;;5050000;28;20491;-60
2022/06/02 01:07:30;;;;;;;5.20;4.80;;;15.40;1.00;;;;;;5050915;28;20500;-60
2022/06/02 01:10:11;;;;;;;6.50;4.90;;;15.30;1.00;;;;;;5046182;28;20492;-60
2022/06/02 01:13:01;;;;;;;4.80;4.40;;;15.30;1.00;;;;;;5044986;28;20454;-58
2022/06/02 01:15:40;;;;;;;5.57;4.40;;;15.00;1.00;;;;;;5044344;28;20922;-60
2022/06/02 01:18:26;;;;;;;5.50;5.00;;;15.10;1.00;;;;;;5050233;28;20473;-59
2022/06/02 01:21:23;;;;;;;5.73;5.23;;;15.10;1.00;;;;;;5049456;28;20485;-61
2022/06/02 01:23:57;;;;;;;5.00;4.63;;;15.10;1.00;;;;;;5049949;28;20481;-60
2022/06/02 01:26:42;;;;;;;5.07;4.77;;;15.20;1.00;;;;;;5049829;28;20591;-60
2022/06/02 01:29:44;;;;;;;5.13;4.73;;;15.10;1.00;;;;;;5041074;28;20450;-60
2022/06/02 01:32:14;;;;;;;4.60;4.30;;;15.20;1.00;;;;;;5043965;28;20978;-59
2022/06/02 01:34:49;;;;;;;4.83;4.43;;;15.10;1.00;;;;;;5048714;28;20462;-59
2022/06/02 01:37:32;;;;;;;6.40;4.70;;;15.00;1.00;;;;;;5046345;28;20499;-59
2022/06/02 01:40:25;;;;;;;4.10;3.80;;;15.00;1.00;;;;;;5045816;28;20449;-60
2022/06/02 01:42:57;;;;;;;4.63;4.23;;;15.00;1.00;;;;;;5049829;28;20504;-60
2022/06/02 01:45:22;;;;;;;4.57;4.00;;;15.00;1.00;;;;;;5048148;28;20529;-60
2022/06/02 01:48:02;;;;;;;4.63;4.23;;;15.00;1.00;;;;;;5041103;28;20920;-61
2022/06/02 01:50:47;;;;;;;4.10;3.80;;;15.00;1.00;;;;;;5048698;28;20192;-59
2022/06/02 01:53:31;;;;;;;4.30;4.00;;;15.00;1.00;;;;;;5041346;28;20446;-60
2022/06/02 01:56:15;;;;;;;3.70;3.40;;;14.80;1.00;;;;;;5049888;28;20449;-59
2022/06/02 01:59:11;;;;;;;4.80;4.40;;;14.80;1.00;;;;;;5046618;28;20855;-60
2022/06/02 02:01:48;;;;;;;3.40;3.20;;;14.70;1.00;;;;;;5043136;28;20443;-60
2022/06/02 02:04:41;;;;;;;4.40;4.10;;;14.70;1.00;;;;;;5046427;28;20464;-60
2022/06/02 02:07:22;;;;;;;6.13;4.20;;;14.70;1.00;;;;;;5048828;28;20413;-61
2022/06/02 02:09:57;;;;;;;5.03;4.37;;;14.60;1.00;;;;;;5045337;28;20477;-60
2022/06/02 02:13:01;;;;;;;4.00;3.70;;;14.20;1.00;;;;;;5045218;28;20449;-59
2022/06/02 02:15:42;;;;;;;4.00;3.70;;;14.30;1.00;;;;;;5047382;28;20811;-60
2022/06/02 02:18:26;;;;;;;3.80;3.50;;;14.00;1.00;;;;;;5043943;28;20461;-61
2022/06/02 02:21:30;;;;;;;4.00;3.67;;;14.00;1.00;;;;;;5049780;28;20434;-59
2022/06/02 02:24:11;;;;;;;4.00;3.70;;;13.80;1.00;;;;;;5047515;28;20449;-60
2022/06/02 02:26:46;;;;;;;4.00;3.70;;;13.80;1.00;;;;;;5049849;28;20449;-61
2022/06/02 02:29:30;;;;;;;6.77;5.80;;;13.80;1.00;;;;;;5044563;28;20452;-59
2022/06/02 02:32:11;;;;;;;9.10;6.67;;;13.60;1.00;;;;;;5047979;28;21187;-59
2022/06/02 02:34:50;;;;;;;6.33;5.30;;;13.60;1.00;;;;;;5045528;28;20465;-60
2022/06/02 02:37:29;;;;;;;5.10;4.70;;;13.60;1.00;;;;;;5044402;28;20440;-60
2022/06/02 02:40:15;;;;;;;5.80;4.47;;;13.50;1.00;;;;;;5060946;28;20484;-60
2022/06/02 02:42:51;;;;;;;4.63;4.23;;;13.50;1.00;;;;;;5042550;28;20447;-59
2022/06/02 02:45:44;;;;;;;4.47;4.17;;;13.50;1.00;;;;;;5058590;28;20469;-60
2022/06/02 02:48:30;;;;;;;4.43;4.10;;;13.60;1.00;;;;;;5046526;28;20485;-60
2022/06/02 02:51:08;;;;;;;4.23;3.93;;;13.60;1.00;;;;;;5048762;28;20463;-60
2022/06/02 02:53:51;;;;;;;4.50;4.20;;;13.60;1.00;;;;;;5045886;28;20454;-60
2022/06/02 02:56:29;;;;;;;5.07;4.57;;;13.70;1.00;;;;;;5044098;28;20518;-60
2022/06/02 02:59:18;;;;;;;4.80;4.50;;;13.60;1.00;;;;;;5047189;28;20985;-61
2022/06/02 03:01:53;;;;;;;4.40;4.10;;;13.50;1.00;;;;;;5046634;28;20504;-60
2022/06/02 03:04:19;;;;;;;4.43;4.13;;;13.50;1.00;;;;;;5046027;28;20453;-60
2022/06/02 03:06:45;;;;;;;4.87;4.47;;;13.50;1.00;;;;;;5045493;28;20807;-60
2022/06/02 03:09:22;;;;;;;5.00;4.50;;;13.50;1.00;;;;;;5042397;28;20188;-60
2022/06/02 03:11:54;;;;;;;4.87;4.47;;;13.40;1.00;;;;;;5046734;28;20504;-60
2022/06/02 03:14:51;;;;;;;4.37;4.07;;;13.50;1.00;;;;;;5046788;28;20470;-61
2022/06/02 03:17:50;;;;;;;5.80;4.43;;;13.50;1.00;;;;;;5043506;28;20522;-60
2022/06/02 03:20:30;;;;;;;4.50;4.10;;;13.50;1.00;;;;;;5047856;28;20981;-60
2022/06/02 03:23:28;;;;;;;4.97;4.57;;;13.50;1.00;;;;;;5041743;28;20429;-59
2022/06/02 03:26:08;;;;;;;4.50;4.10;;;13.40;1.00;;;;;;5049490;28;20435;-60
2022/06/02 03:28:59;;;;;;;4.63;4.23;;;13.50;1.00;;;;;;5047904;28;20804;-60
2022/06/02 03:31:57;;;;;;;4.93;4.47;;;13.70;1.00;;;;;;5043815;28;20480;-59
2022/06/02 03:34:28;;;;;;;4.00;3.70;;;13.70;1.00;;;;;;5041672;28;20466;-59
2022/06/02 03:37:13;;;;;;;4.00;3.70;;;13.70;1.00;;;;;;5046401;28;20413;-61
2022/06/02 03:39:53;;;;;;;4.00;3.70;;;13.80;1.00;;;;;;5045152;28;20441;-59
2022/06/02 03:42:51;;;;;;;4.47;4.17;;;13.90;1.00;;;;;;5048205;28;20500;-59
2022/06/02 03:45:34;;;;;;;5.07;4.37;;;14.10;1.00;;;;;;5044943;28;20992;-60
2022/06/02 03:48:27;;;;;;;4.60;4.30;;;14.20;1.00;;;;;;5050236;28;20474;-59
2022/06/02 03:51:05;;;;;;;4.43;4.03;;;14.10;1.00;;;;;;5047558;28;20465;-60
2022/06/02 03:53:59;;;;;;;5.20;4.80;;;14.00;1.00;;;;;;5050504;28;20831;-60
2022/06/02 03:56:34;;;;;;;5.40;4.90;;;14.00;1.00;;;;;;5048694;28;20470;-60
2022/06/02 03:59:15;;;;;;;5.30;4.90;;;13.80;1.00;;;;;;5049189;28;20416;-59
2022/06/02 04:01:45;;;;;;;5.47;5.07;;;13.80;1.00;;;;;;5043223;28;20422;-60
2022/06/02 04:04:33;;;;;;;5.43;5.03;;;13.70;1.00;;;;;;5050090;28;20596;-58
2022/06/02 04:07:36;;;;;;;5.17;4.77;;;13.70;1.00;;;;;;5060238;28;20437;-58
2022/06/02 04:10:33;;;;;;;5.80;5.33;;;13.60;1.00;;;;;;5057147;28;20527;-59
2022/06/02 04:13:38;;;;;;;5.90;5.30;;;13.50;1.00;;;;;;5052324;28;20541;-59
2022/06/02 04:16:39;;;;;;;6.13;5.60;;;13.50;1.00;;;;;;5053163;28;20446;-59
2022/06/02 04:22:33;;;;;;;6.73;6.23;;;13.40;1.00;;;;;;5061901;28;20480;-60
2022/06/02 04:25:10;;;;;;;6.57;5.90;;;13.40;1.00;;;;;;5059971;28;20725;-60
2022/06/02 04:28:04;;;;;;;7.03;6.40;;;13.40;1.00;;;;;;5058718;28;20496;-60
2022/06/02 04:30:42;;;;;;;7.47;6.27;;;13.40;1.00;;;;;;5060632;28;20442;-61
2022/06/02 04:33:33;;;;;;;7.23;6.50;;;13.40;1.00;;;;;;5045958;28;20455;-61
2022/06/02 04:36:26;;;;;;;6.43;5.93;;;13.40;1.00;;;;;;5050423;28;20534;-60
2022/06/02 04:39:04;;;;;;;6.87;6.27;;;13.60;1.00;;;;;;5067478;28;20510;-61
2022/06/02 04:42:03;;;;;;;6.43;5.70;;;13.70;1.00;;;;;;5055052;28;20538;-60
2022/06/02 04:44:41;;;;;;;6.63;6.10;;;13.80;1.00;;;;;;5053880;28;20799;-60
2022/06/02 04:47:27;;;;;;;7.20;6.50;;;13.80;1.00;;;;;;5050789;28;20475;-60
2022/06/02 04:50:07;;;;;;;6.77;6.17;;;13.90;1.00;;;;;;5066506;28;20491;-61
2022/06/02 04:52:40;;;;;;;8.20;6.37;;;13.90;1.00;;;;;;5046655;28;20458;-60
2022/06/02 04:55:27;;;;;;;6.70;6.20;;;13.80;1.00;;;;;;5061850;28;21001;-60
2022/06/02 04:58:04;;;;;;;7.17;6.67;;;13.90;1.00;;;;;;5056154;28;20465;-60
2022/06/02 05:00:41;;;;;;;6.80;6.20;;;13.90;1.00;;;;;;5047052;28;20526;-61
2022/06/02 05:03:23;;;;;;;6.23;5.83;;;14.00;1.00;;;;;;5050953;28;20427;-62
2022/06/02 05:06:02;;;;;;;6.67;6.07;;;13.90;1.00;;;;;;5046422;28;20429;-61
2022/06/02 05:08:54;;;;;;;6.63;6.13;;;14.00;1.00;;;;;;5048358;28;20827;-60
2022/06/02 05:11:38;;;;;;;7.20;6.70;;;;;;;;;;5048768;28;20454;-61
2022/06/02 05:14:25;;;;;;;7.17;6.47;;;14.20;1.00;;;;;;5048268;28;20462;-61
2022/06/02 05:16:58;;;;;;;9.30;6.80;;;14.50;1.00;;;;;;5046286;28;20446;-60
2022/06/02 05:19:42;;;;;;;8.57;5.87;;;14.60;1.00;;;;;;5050250;28;20525;-60
2022/06/02 05:22:44;;;;;;;6.97;6.37;;;14.60;1.00;;;;;;5047218;28;21148;-61
2022/06/02 05:25:12;;;;;;;7.57;6.93;;;;;;;;;;5048703;28;21191;-61
2022/06/02 05:27:52;;;;;;;7.10;6.50;;;14.80;1.00;;;;;;5047126;28;20438;-60
2022/06/02 05:30:41;;;;;;;8.53;6.23;;;14.90;1.00;;;;;;5049660;28;20458;-61
2022/06/02 05:33:07;;;;;;;6.50;6.00;;;14.90;1.00;;;;;;5047031;28;20474;-61
2022/06/02 05:35:51;;;;;;;7.10;6.50;;;14.90;1.00;;;;;;5049539;28;20458;-60
2022/06/02 05:38:54;;;;;;;6.70;6.00;;;14.90;1.00;;;;;;5048146;28;20662;-61
2022/06/02 05:41:30;;;;;;;6.83;6.23;;;14.80;1.00;;;;;;5046638;28;20441;-59
2022/06/02 05:44:10;;;;;;;6.70;6.17;;;14.90;1.00;;;;;;5048709;28;20434;-61
2022/06/02 05:46:54;;;;;;;7.17;6.60;;;15.10;1.00;;;;;;5047504;28;20476;-60
2022/06/02 05:49:24;;;;;;;7.70;6.93;;;15.30;1.00;;;;;;5047442;28;20438;-60
2022/06/02 05:52:26;;;;;;;8.20;7.40;;;15.50;1.00;;;;;;5048957;28;20450;-61
2022/06/02 05:55:09;;;;;;;7.23;6.53;;;15.40;1.00;;;;;;5046179;28;20473;-60
2022/06/02 05:57:41;;;;;;;8.80;6.40;;;15.30;1.00;;;;;;5048414;28;20436;-61
2022/06/02 06:00:25;;;;;;;7.07;6.37;;;15.50;1.00;;;;;;5049923;28;20442;-60
2022/06/02 06:03:06;;;;;;;9.23;6.60;;;15.70;1.00;;;;;;5048216;28;20477;-60
2022/06/02 06:05:53;;;;;;;8.23;6.80;;;15.70;1.00;;;;;;5047044;28;20444;-60
2022/06/02 06:08:35;;;;;;;6.67;6.17;;;15.70;1.00;;;;;;5048736;28;20477;-61
2022/06/02 06:11:27;;;;;;;8.63;7.83;;;15.60;1.00;;;;;;5045671;28;20442;-61
2022/06/02 06:13:55;;;;;;;7.67;7.07;;;15.50;1.00;;;;;;5031258;28;20417;-60
2022/06/02 06:16:39;;;;;;;7.67;6.97;;;15.60;1.00;;;;;;5047271;28;20438;-61
2022/06/02 06:19:30;;;;;;;7.40;6.30;;;15.60;1.00;;;;;;5051728;28;20481;-61
2022/06/02 06:22:06;;;;;;;7.47;6.77;;;15.90;1.00;;;;;;5048811;28;20438;-61
2022/06/02 06:24:37;;;;;;;7.17;6.47;;;16.10;1.00;;;;;;5049440;28;20467;-60
2022/06/02 06:27:31;;;;;;;7.20;6.53;;;16.10;1.00;;;;;;5049792;28;20862;-61
2022/06/02 06:30:08;;;;;;;6.67;6.17;;;16.30;1.00;;;;;;5048215;28;20586;-61
2022/06/02 06:32:58;;;;;;;6.70;6.13;;;16.30;1.00;;;;;;5047180;28;20541;-61
2022/06/02 06:35:41;;;;;;;6.00;5.50;;;16.50;1.00;;;;;;5047431;28;20523;-60
2022/06/02 06:38:16;;;;;;;6.70;6.20;;;16.50;1.00;;;;;;5044442;28;20480;-60
2022/06/02 06:41:14;;;;;;;6.47;5.87;;;16.70;1.00;;;;;;5052148;28;20861;-60
2022/06/02 06:43:56;;;;;;;6.93;6.37;;;16.70;1.00;;;;;;5045131;28;20587;-61
2022/06/02 06:46:37;;;;;;;6.57;6.03;;;16.90;1.00;;;;;;5046980;28;20477;-61
2022/06/02 06:49:32;;;;;;;7.70;7.03;;;17.00;1.00;;;;;;5048040;28;20457;-62
2022/06/02 06:52:20;;;;;;;6.67;5.97;;;17.30;1.00;;;;;;5047840;28;21048;-60
2022/06/02 06:55:00;;;;;;;6.17;5.63;;;17.50;1.00;;;;;;5051710;28;20474;-60
2022/06/02 06:57:50;;;;;;;5.20;4.80;;;17.40;1.00;;;;;;5051334;28;20446;-61
2022/06/02 07:00:22;;;;;;;5.83;5.33;;;17.50;1.00;;;;;;5060407;28;20495;-60
2022/06/02 07:02:54;;;;;;;6.10;5.60;;;17.60;1.00;;;;;;5043985;28;20439;-60
2022/06/02 07:05:38;;;;;;;5.80;5.40;;;17.80;1.00;;;;;;5045965;28;20458;-61
2022/06/02 07:08:28;;;;;;;6.40;5.30;;;17.90;1.00;;;;;;5045689;28;20447;-61
2022/06/02 07:14:22;;;;;;;5.47;5.07;;;17.80;1.00;;;;;;5059958;28;20855;-61
2022/06/02 07:16:58;;;;;;;5.87;5.30;;;17.90;1.00;;;;;;5058424;28;20438;-62
2022/06/02 07:19:39;;;;;;;5.40;5.00;;;18.00;1.00;;;;;;5049970;28;21249;-61
2022/06/02 07:22:20;;;;;;;5.73;5.13;;;18.00;1.00;;;;;;5051138;28;20454;-61
2022/06/02 07:25:07;;;;;;;4.90;4.50;;;17.90;1.00;;;;;;5052098;28;20491;-61
2022/06/02 07:27:57;;;;;;;5.67;5.20;;;17.80;1.00;;;;;;5049471;28;20445;-60
2022/06/02 07:30:36;;;;;;;5.20;4.83;;;17.70;1.00;;;;;;5050429;28;20835;-61
2022/06/02 07:33:17;;;;;;;6.20;4.93;;;17.70;1.00;;;;;;5047757;28;20417;-61
2022/06/02 07:36:08;;;;;;;5.10;4.70;;;17.70;1.00;;;;;;5052267;28;20515;-61
2022/06/02 07:38:33;;;;;;;5.67;5.13;;;17.30;1.00;;;;;;5052879;28;20438;-61
2022/06/02 07:41:46;;;;;;;4.97;4.40;;;17.30;1.00;;;;;;5052006;28;20449;-61
2022/06/02 07:44:24;;;;;;;5.70;4.90;;;17.70;1.00;;;;;;5043316;28;20209;-61
2022/06/02 07:47:21;;;;;;;5.37;4.90;;;17.80;1.00;;;;;;5050104;28;20511;-62
2022/06/02 07:50:08;;;;;;;5.37;4.97;;;17.90;1.00;;;;;;5049947;28;20594;-62
2022/06/02 07:52:52;;;;;;;5.20;4.80;;;18.00;1.00;;;;;;5050304;28;20468;-61
2022/06/02 07:55:34;;;;;;;4.73;4.30;;;18.00;1.00;;;;;;5051881;28;20470;-61
2022/06/02 07:58:26;;;;;;;5.20;4.67;;;17.80;1.00;;;;;;5051891;28;20421;-61
2022/06/02 08:01:32;;;;;;;4.80;4.47;;;17.90;1.00;;;;;;5047750;28;20423;-61
2022/06/02 08:04:06;;;;;;;5.13;4.73;;;18.00;1.00;;;;;;5047838;28;20920;-62
2022/06/02 08:06:44;;;;;;;5.30;4.90;;;18.30;1.00;;;;;;5057143;28;20446;-63
2022/06/02 08:09:37;;;;;;;4.53;4.13;;;18.40;1.00;;;;;;5061735;28;20880;-62
2022/06/02 08:12:26;;;;;;;4.10;3.73;;;18.60;1.00;;;;;;5065820;28;20429;-62
2022/06/02 08:15:16;;;;;;;2.87;2.67;;;19.00;1.00;;;;;;5070608;28;21028;-63
2022/06/02 08:17:46;;;;;;;3.30;3.00;;;19.20;1.00;;;;;;5052744;28;20533;-62
2022/06/02 08:20:34;;;;;;;4.00;3.63;;;19.30;1.00;;;;;;5053072;28;20447;-63
2022/06/02 08:23:24;;;;;;;3.43;3.23;;;19.30;1.00;;;;;;5057673;28;20446;-61
2022/06/02 08:25:55;;;;;;;4.13;3.07;;;19.50;1.00;;;;;;5061702;28;20620;-59
2022/06/02 08:28:39;;;;;;;2.80;2.43;;;19.90;1.00;;;;;;5060585;28;20429;-62
2022/06/02 08:31:32;;;;;;;3.13;2.83;;;20.20;1.00;;;;;;5052176;28;20755;-61
2022/06/02 08:34:13;;;;;;;3.23;2.93;;;20.20;1.00;;;;;;5051911;28;20780;-61
2022/06/02 08:36:59;;;;;;;2.93;2.73;;;19.80;1.00;;;;;;5054046;28;20909;-62
2022/06/02 08:39:43;;;;;;;2.90;2.70;;;19.30;1.00;;;;;;5056891;28;20935;-61
2022/06/02 08:42:39;;;;;;;3.03;2.70;;;19.20;1.00;;;;;;5051809;28;20413;-61
2022/06/02 08:45:44;;;;;;;2.77;2.57;;;18.80;1.00;;;;;;5053534;28;20438;-62
2022/06/02 08:48:25;;;;;;;2.53;2.33;;;18.70;1.00;;;;;;5046047;28;20435;-61
2022/06/02 08:51:28;;;;;;;2.73;2.47;;;18.80;1.00;;;;;;5071879;28;20448;-61
2022/06/02 08:54:10;;;;;;;2.60;2.30;;;18.90;1.00;;;;;;5049419;28;20412;-61
2022/06/02 08:57:16;;;;;;;4.27;2.80;;;18.70;1.00;;;;;;5050756;28;20541;-63
2022/06/02 09:00:11;;;;;;;2.90;2.57;;;18.60;1.00;;;;;;5030831;28;20421;-61
2022/06/02 09:03:07;;;;;;;4.30;2.70;;;18.60;1.00;;;;;;5058874;28;20525;-61
2022/06/02 09:06:08;;;;;;;2.93;2.63;;;19.00;1.00;;;;;;5051472;28;20525;-60
2022/06/02 09:08:41;;;;;;;3.70;3.20;;;19.40;1.00;;;;;;5046443;28;20522;-61
2022/06/02 09:11:36;;;;;;;2.80;2.57;;;19.70;1.00;;;;;;5050534;28;20485;-62
2022/06/02 09:14:21;;;;;;;2.60;2.40;;;20.00;1.00;;;;;;5043792;28;20428;-62
2022/06/02 09:17:07;;;;;;;2.80;2.60;;;19.70;1.00;;;;;;5046872;28;20453;-62
2022/06/02 09:19:47;;;;;;;3.67;3.37;;;19.60;1.00;;;;;;5050358;28;20412;-63
2022/06/02 09:22:45;;;;;;;3.17;2.97;;;19.80;1.00;;;;;;5050249;28;20442;-61
2022/06/02 09:25:41;;;;;;;3.30;2.90;;;19.50;1.00;;;;;;5046001;28;20526;-61
2022/06/02 09:28:49;;;;;;;3.10;2.90;;;19.40;1.00;;;;;;5049446;28;20450;-62
2022/06/02 09:31:21;;;;;;;3.27;2.97;;;19.60;1.00;;;;;;5051458;28;20445;-64
2022/06/02 09:34:00;;;;;;;3.53;3.10;;;19.60;1.00;;;;;;5050844;28;20438;-62
2022/06/02 09:36:44;;;;;;;3.83;3.53;;;19.90;1.00;;;;;;5050876;28;20451;-62
2022/06/02 09:39:16;;;;;;;4.30;4.00;;;19.50;1.00;;;;;;5052040;28;20429;-61
2022/06/02 09:41:55;;;;;;;4.50;4.20;;;19.20;1.00;;;;;;5070662;28;20437;-60
2022/06/02 09:45:06;;;;;;;3.80;3.60;;;18.90;1.00;;;;;;5052557;28;20438;-62
2022/06/02 09:47:40;;;;;;;4.50;4.20;;;19.70;1.00;;;;;;5048532;28;20449;-61
2022/06/02 09:50:07;;;;;;;3.67;3.30;;;19.70;1.00;;;;;;5064690;28;20438;-61
2022/06/02 09:52:51;;;;;;;3.30;3.10;;;19.60;1.00;;;;;;5049969;28;20932;-62
2022/06/02 09:55:46;;;;;;;4.10;3.80;;;19.80;1.00;;;;;;5049753;28;20458;-62
2022/06/02 09:58:46;;;;;;;4.83;4.20;;;19.80;1.00;;;;;;5048509;28;20514;-61
2022/06/02 10:02:01;;;;;;;4.50;4.20;;;19.60;1.00;;;;;;5052269;28;20944;-62
2022/06/02 10:04:44;;;;;;;4.10;3.80;;;19.70;1.00;;;;;;5043101;28;21128;-61
2022/06/02 10:07:27;;;;;;;3.60;3.40;;;20.10;1.00;;;;;;5045552;28;20466;-62
2022/06/02 10:10:00;;;;;;;3.80;3.50;;;20.40;1.00;;;;;;5045907;28;22203;-61
2022/06/02 10:15:40;;;;;;;3.80;3.50;;;19.80;1.00;;;;;;5049125;28;20528;-60
2022/06/02 10:18:28;;;;;;;4.37;4.07;;;19.60;1.00;;;;;;5049283;28;20449;-61
2022/06/02 10:20:57;;;;;;;4.20;3.90;;;19.50;1.00;;;;;;5036362;28;20503;-62
2022/06/02 10:24:05;;;;;;;4.10;3.90;;;19.70;1.00;;;;;;5048162;28;20431;-62
2022/06/02 10:26:49;;;;;;;3.40;3.20;;;19.80;1.00;;;;;;5045814;28;20473;-60
2022/06/02 10:29:44;;;;;;;3.77;3.47;;;19.70;1.00;;;;;;5048520;28;20421;-61
2022/06/02 10:32:24;;;;;;;3.67;3.30;;;20.00;1.00;;;;;;5048810;28;20746;-62
2022/06/02 10:35:15;;;;;;;3.87;3.67;;;20.40;1.00;;;;;;5045492;28;20471;-61
2022/06/02 10:37:57;;;;;;;4.30;4.00;;;20.40;1.00;;;;;;5048473;28;20439;-62
2022/06/02 10:40:55;;;;;;;3.60;3.40;;;19.90;1.00;;;;;;5047613;28;20935;-61
2022/06/02 10:43:47;;;;;;;3.93;3.73;;;19.60;1.00;;;;;;5036137;28;20667;-62
2022/06/02 10:46:58;;;;;;;3.20;3.00;;;19.60;1.00;;;;;;5008724;28;1030238;-62
2022/06/02 10:49:50;;;;;;;3.07;2.97;;;19.80;1.00;;;;;;5047365;28;20188;-62
2022/06/02 10:52:46;;;;;;;3.70;3.40;;;19.90;1.00;;;;;;5049963;28;20747;-62
2022/06/02 10:55:18;;;;;;;3.83;3.63;;;20.50;1.00;;;;;;5050080;28;20478;-62
2022/06/02 10:58:07;;;;;;;3.63;3.43;;;20.40;1.00;;;;;;5053324;28;20434;-63
2022/06/02 11:00:48;;;;;;;3.80;3.60;;;20.30;1.00;;;;;;5051265;28;20543;-62
2022/06/02 11:03:20;;;;;;;3.30;3.10;;;20.60;1.00;;;;;;5051923;28;20456;-62
2022/06/02 11:05:57;;;;;;;3.80;3.50;;;21.00;1.00;;;;;;5051128;28;20470;-61
2022/06/02 11:09:00;;;;;;;4.90;4.70;;;21.20;1.00;;;;;;5053081;28;20426;-61
2022/06/02 11:12:03;;;;;;;3.97;3.77;;;21.00;1.00;;;;;;5052990;28;20457;-62
2022/06/02 11:14:50;;;;;;;4.63;4.33;;;20.70;1.00;;;;;;5052655;28;20508;-62
2022/06/02 11:17:46;;;;;;;4.40;4.20;;;20.60;1.00;;;;;;5052044;28;20416;-61
2022/06/02 11:20:44;;;;;;;5.80;4.53;;;20.70;1.00;;;;;;5052454;28;20959;-62
2022/06/02 11:23:35;;;;;;;4.43;4.07;;;20.90;1.00;;;;;;5052202;28;20960;-64
2022/06/02 11:26:12;;;;;;;4.53;4.27;;;21.20;1.00;;;;;;5052726;28;20477;-62
2022/06/02 11:28:56;;;;;;;4.40;4.10;;;21.10;1.00;;;;;;5050734;28;20501;-62
2022/06/02 11:31:24;;;;;;;3.97;3.77;;;20.90;1.00;;;;;;5053933;28;21203;-62
2022/06/02 11:33:53;;;;;;;3.80;3.53;;;21.20;1.00;;;;;;5052210;28;20505;-61
2022/06/02 11:36:37;;;;;;;4.40;4.10;;;21.70;1.00;;;;;;5051807;28;20956;-62
2022/06/02 11:39:49;;;;;;;3.93;3.73;;;21.20;1.00;;;;;;5054655;28;20438;-62
2022/06/02 11:42:52;;;;;;;4.90;4.60;;;21.30;1.00;;;;;;5056028;28;20872;-62
2022/06/02 11:45:56;;;;;;;4.50;4.20;;;21.20;1.00;;;;;;5069805;28;20445;-62
2022/06/02 11:48:49;;;;;;;4.77;4.47;;;21.40;1.00;;;;;;5068943;28;20469;-61
2022/06/02 11:51:50;;;;;;;5.13;4.73;;;21.30;1.00;;;;;;5049460;28;20423;-60
2022/06/02 11:54:56;;;;;;;5.60;5.20;;;21.20;1.00;;;;;;5050941;28;20470;-60
2022/06/02 11:57:34;;;;;;;5.40;5.00;;;20.90;1.00;;;;;;5045738;28;20488;-61
2022/06/02 12:00:12;;;;;;;5.30;5.00;;;21.20;1.00;;;;;;5049523;28;20529;-61
2022/06/02 12:02:56;;;;;;;4.77;4.43;;;21.50;1.00;;;;;;5051162;28;20986;-61
2022/06/02 12:05:59;;;;;;;4.93;4.63;;;21.40;1.00;;;;;;5050484;28;20438;-61
2022/06/02 12:08:49;;;;;;;5.33;5.03;;;21.10;1.00;;;;;;5053835;28;20468;-61
2022/06/02 12:11:22;;;;;;;5.47;5.00;;;21.00;1.00;;;;;;5053590;28;20434;-60
2022/06/02 12:14:16;;;;;;;4.90;4.60;;;20.50;1.00;;;;;;5071851;28;20454;-61
2022/06/02 12:16:54;;;;;;;4.53;4.23;;;20.70;1.00;;;;;;5062459;28;20416;-61
2022/06/02 12:19:48;;;;;;;4.50;4.20;;;20.40;1.00;;;;;;5072333;28;20408;-61
2022/06/02 12:22:39;;;;;;;4.33;4.03;;;20.50;1.00;;;;;;5061144;28;20424;-61
2022/06/02 12:25:16;;;;;;;4.90;4.60;;;20.60;1.00;;;;;;5065286;28;20448;-62
2022/06/02 12:28:00;;;;;;;4.97;4.33;;;20.80;1.00;;;;;;5054801;28;20400;-61
2022/06/02 12:31:09;;;;;;;4.30;4.03;;;20.70;1.00;;;;;;5056306;28;20434;-61
2022/06/02 12:33:55;;;;;;;4.70;4.40;;;20.70;1.00;;;;;;5067184;28;20412;-61
2022/06/02 12:36:21;;;;;;;4.40;4.20;;;20.70;1.00;;;;;;5071856;28;20461;-61
2022/06/02 12:39:14;;;;;;;4.17;3.90;;;20.90;1.00;;;;;;5063733;28;20440;-61
2022/06/02 12:42:30;;;;;;;4.00;3.63;;;21.30;1.00;;;;;;5061233;28;20171;-61
2022/06/02 12:45:40;;;;;;;4.40;4.20;;;21.50;1.00;;;;;;5053532;28;20434;-61
2022/06/02 12:49:02;;;;;;;4.33;4.13;;;21.20;1.00;;;;;;5051691;28;20478;-60
2022/06/02 12:52:06;;;;;;;4.10;3.90;;;21.10;1.00;;;;;;5051226;28;20464;-60
2022/06/02 12:54:48;;;;;;;3.67;3.37;;;21.40;1.00;;;;;;5051658;28;20972;-60
2022/06/02 12:57:38;;;;;;;3.30;3.10;;;21.40;1.00;;;;;;5051483;28;20556;-60
2022/06/02 13:00:24;;;;;;;4.20;3.90;;;21.70;1.00;;;;;;5051781;28;20518;-60
2022/06/02 13:03:13;;;;;;;3.90;3.60;;;21.50;1.00;;;;;;5051627;28;20476;-60
2022/06/02 13:06:11;;;;;;;3.97;3.77;;;21.20;1.00;;;;;;5059942;28;20422;-60
2022/06/02 13:09:04;;;;;;;4.00;3.80;;;21.00;1.00;;;;;;5051714;28;20549;-60
2022/06/02 13:11:58;;;;;;;4.50;4.20;;;21.20;1.00;;;;;;5061436;28;20901;-60
2022/06/02 13:14:32;;;;;;;6.90;4.67;;;21.30;1.00;;;;;;5050738;28;20466;-60
2022/06/02 13:17:29;;;;;;;4.63;4.23;;;21.10;1.00;;;;;;5059934;28;20405;-62
2022/06/02 13:20:00;;;;;;;4.90;4.43;;;21.10;1.00;;;;;;5071120;28;20914;-61
2022/06/02 13:23:03;;;;;;;4.50;4.20;;;21.00;1.00;;;;;;5065593;28;20430;-61
2022/06/02 13:25:35;;;;;;;4.67;4.27;;;20.80;1.00;;;;;;5045971;28;20458;-61
2022/06/02 13:28:19;;;;;;;4.20;3.90;;;20.80;1.00;;;;;;5050440;28;20442;-61
2022/06/02 13:30:57;;;;;;;4.60;4.30;;;20.80;1.00;;;;;;5051107;28;20530;-60
2022/06/02 13:34:13;;;;;;;4.60;4.30;;;20.80;1.00;;;;;;5051104;28;20426;-61
2022/06/02 13:37:29;;;;;;;4.43;4.13;;;21.00;1.00;;;;;;5051100;28;20446;-60
2022/06/02 13:40:49;;;;;;;5.03;4.73;;;21.10;1.00;;;;;;5050814;28;20841;-61
2022/06/02 13:43:28;;;;;;;4.70;4.33;;;20.80;1.00;;;;;;5027503;28;20712;-60
2022/06/02 13:46:15;;;;;;;5.23;4.87;;;21.00;1.00;;;;;;5028364;28;20964;-61
2022/06/02 13:49:14;;;;;;;4.27;4.07;;;21.00;1.00;;;;;;5044011;28;20753;-60
2022/06/02 13:52:32;;;;;;;5.03;4.63;;;21.10;1.00;;;;;;5050371;28;20434;-61
2022/06/02 13:58:37;;;;;;;4.03;3.83;;;21.20;1.00;;;;;;5049934;28;20425;-60
2022/06/02 14:01:18;;;;;;;3.70;3.50;;;21.20;1.00;;;;;;5050600;28;20430;-61
2022/06/02 14:04:02;;;;;;;4.07;3.87;;;21.40;1.00;;;;;;5050474;28;20432;-60
2022/06/02 14:06:33;;;;;;;4.80;4.50;;;21.90;1.00;;;;;;5049899;28;20916;-62
2022/06/02 14:09:24;;;;;;;4.00;3.80;;;22.10;1.00;;;;;;5050501;28;20431;-60
2022/06/02 14:12:01;;;;;;;3.90;3.70;;;23.20;1.00;;;;;;5050454;28;20413;-62
2022/06/02 14:15:16;;;;;;;3.43;3.23;;;24.70;1.00;;;;;;5050092;28;20461;-60
2022/06/02 14:18:28;;;;;;;4.30;4.00;;;25.20;1.00;;;;;;5050384;28;20417;-61
2022/06/02 14:21:21;;;;;;;3.43;3.23;;;25.50;1.00;;;;;;5027037;28;20432;-63
2022/06/02 14:24:09;;;;;;;2.90;2.70;;;26.50;1.00;;;;;;5049409;28;20420;-60
2022/06/02 14:26:46;;;;;;;2.80;2.70;;;26.50;1.00;;;;;;5048605;28;20418;-60
2022/06/02 14:29:27;;;;;;;3.33;3.03;;;27.10;1.00;;;;;;5049852;28;21032;-62
2022/06/02 14:32:05;;;;;;;2.83;2.63;;;27.30;1.00;;;;;;5050238;28;20405;-62
2022/06/02 14:34:43;;;;;;;2.40;2.20;;;28.10;1.00;;;;;;5050132;28;20839;-61
2022/06/02 14:37:24;;;;;;;2.70;2.60;;;29.80;1.00;;;;;;5053503;28;20489;-63
2022/06/02 14:40:06;;;;;;;2.70;2.50;;;29.40;1.00;;;;;;5069723;28;20434;-63
2022/06/02 14:43:03;;;;;;;2.47;2.37;;;28.20;1.00;;;;;;5067389;28;20412;-61
2022/06/02 14:45:51;;;;;;;2.80;2.60;;;29.70;1.00;;;;;;5069794;28;20423;-60
2022/06/02 14:48:43;;;;;;;2.57;2.43;;;29.60;1.00;;;;;;5063644;28;20421;-62
2022/06/02 14:51:17;;;;;;;2.30;2.20;;;29.20;1.00;;;;;;5058504;28;20483;-62
2022/06/02 14:54:10;;;;;;;1.93;1.83;;;30.20;1.00;;;;;;5050070;28;20747;-62
2022/06/02 14:57:11;;;;;;;2.10;2.00;;;30.50;1.00;;;;;;5049861;28;20434;-59